createdAt,value
2023-04-11T00:01:49.836Z,43.10
2023-04-11T00:04:20.798Z,33.65
2023-04-11T00:06:48.736Z,38.00
2023-04-11T00:09:17.174Z,32.97
2023-04-11T00:11:44.429Z,31.25
2023-04-11T00:14:12.733Z,29.63
2023-04-11T00:16:41.518Z,32.83
2023-04-11T00:19:11.954Z,35.05
2023-04-11T00:21:44.254Z,47.63
2023-04-11T00:24:11.630Z,32.65
2023-04-11T00:26:38.838Z,29.17
2023-04-11T00:29:06.059Z,27.67
2023-04-11T00:31:33.648Z,43.97
2023-04-11T00:34:00.912Z,48.10
2023-04-11T00:36:28.212Z,28.35
2023-04-11T00:38:55.808Z,30.95
2023-04-11T00:41:24.516Z,30.15
2023-04-11T00:43:51.700Z,30.65
2023-04-11T00:46:19.243Z,28.60
2023-04-11T00:48:47.085Z,30.23
2023-04-11T00:51:16.100Z,29.55
2023-04-11T00:53:45.831Z,26.73
2023-04-11T00:56:13.273Z,28.30
2023-04-11T00:58:41.866Z,26.63
2023-04-11T01:01:09.614Z,27.35
2023-04-11T01:03:39.421Z,30.58
2023-04-11T01:06:10.316Z,29.63
2023-04-11T01:11:07.273Z,26.17
2023-04-11T01:13:36.790Z,28.20
2023-04-11T01:16:04.240Z,24.98
2023-04-11T01:18:31.546Z,27.08
2023-04-11T01:21:00.509Z,25.70
2023-04-11T01:23:28.371Z,28.42
2023-04-11T01:25:55.778Z,23.60
2023-04-11T01:28:23.044Z,23.38
2023-04-11T01:30:50.497Z,23.80
2023-04-11T01:33:18.143Z,25.50
2023-04-11T01:35:45.529Z,22.30
2023-04-11T01:38:12.829Z,20.83
2023-04-11T01:40:41.552Z,23.50
2023-04-11T01:43:10.021Z,22.60
2023-04-11T01:45:37.723Z,21.15
2023-04-11T01:48:08.613Z,20.35
2023-04-11T01:50:36.192Z,18.38
2023-04-11T01:53:04.112Z,19.42
2023-04-11T01:55:31.381Z,19.30
2023-04-11T01:57:58.722Z,20.10
2023-04-11T02:00:26.256Z,18.58
2023-04-11T02:02:53.510Z,18.52
2023-04-11T02:05:22.185Z,20.52
2023-04-11T02:07:49.393Z,21.05
2023-04-11T02:10:18.719Z,21.63
2023-04-11T02:12:46.032Z,22.88
2023-04-11T02:15:13.355Z,18.25
2023-04-11T02:17:45.513Z,18.08
2023-04-11T02:20:14.197Z,21.17
2023-04-11T02:22:41.963Z,19.65
2023-04-11T02:25:09.693Z,20.38
2023-04-11T02:27:37.017Z,20.90
2023-04-11T02:30:06.214Z,18.83
2023-04-11T02:32:35.861Z,21.08
2023-04-11T02:35:04.880Z,20.13
2023-04-11T02:37:32.304Z,19.25
2023-04-11T02:39:59.560Z,17.60
2023-04-11T02:42:26.750Z,16.63
2023-04-11T02:44:57.187Z,18.83
2023-04-11T02:47:28.283Z,17.45
2023-04-11T02:50:00.002Z,17.40
2023-04-11T02:52:33.825Z,18.80
2023-04-11T02:55:01.446Z,18.30
2023-04-11T02:57:28.632Z,20.85
2023-04-11T02:59:56.810Z,22.60
2023-04-11T03:02:30.817Z,21.77
2023-04-11T03:05:04.162Z,22.20
2023-04-11T03:07:34.595Z,22.05
2023-04-11T03:10:01.817Z,20.23
2023-04-11T03:12:29.097Z,22.25
2023-04-11T03:15:00.685Z,20.35
2023-04-11T03:17:28.387Z,21.92
2023-04-11T03:19:55.774Z,20.95
2023-04-11T03:22:24.724Z,20.55
2023-04-11T03:24:51.989Z,19.30
2023-04-11T03:27:22.345Z,17.30
2023-04-11T03:29:54.037Z,15.60
2023-04-11T03:32:42.599Z,15.57
2023-04-11T03:35:10.256Z,16.05
2023-04-11T03:37:41.110Z,15.55
2023-04-11T03:40:09.947Z,15.30
2023-04-11T03:42:40.756Z,14.82
2023-04-11T03:45:11.376Z,13.93
2023-04-11T03:47:40.518Z,14.32
2023-04-11T03:50:09.151Z,13.30
2023-04-11T03:52:42.788Z,13.13
2023-04-11T03:55:14.552Z,12.90
2023-04-11T03:57:41.903Z,13.00
2023-04-11T04:00:10.910Z,12.02
2023-04-11T04:02:53.347Z,13.55
2023-04-11T04:05:21.215Z,13.38
2023-04-11T04:07:48.993Z,12.73
2023-04-11T04:10:23.691Z,13.40
2023-04-11T04:12:54.058Z,13.18
2023-04-11T04:15:24.771Z,12.90
2023-04-11T04:17:52.458Z,13.55
2023-04-11T04:20:27.467Z,11.20
2023-04-11T04:23:00.314Z,12.88
2023-04-11T04:25:42.400Z,10.73
2023-04-11T04:28:10.806Z,10.90
2023-04-11T04:30:40.063Z,11.93
2023-04-11T04:33:12.414Z,11.32
2023-04-11T04:35:44.712Z,11.15
2023-04-11T04:38:18.031Z,10.90
2023-04-11T04:40:50.515Z,10.23
2023-04-11T04:43:24.122Z,11.00
2023-04-11T04:45:57.375Z,8.63
2023-04-11T04:48:31.130Z,8.57
2023-04-11T04:50:58.360Z,8.50
2023-04-11T04:53:26.106Z,8.82
2023-04-11T04:55:57.544Z,8.05
2023-04-11T04:58:27.942Z,7.60
2023-04-11T05:00:56.167Z,7.47
2023-04-11T05:03:27.661Z,6.85
2023-04-11T05:05:56.836Z,7.13
2023-04-11T05:08:24.704Z,5.78
2023-04-11T05:10:55.052Z,6.38
2023-04-11T05:13:22.599Z,5.55
2023-04-11T05:15:51.193Z,5.40
2023-04-11T05:18:19.142Z,5.78
2023-04-11T05:20:46.604Z,5.22
2023-04-11T05:23:20.030Z,5.18
2023-04-11T05:25:48.222Z,5.57
2023-04-11T05:28:16.307Z,5.60
2023-04-11T05:30:43.520Z,4.70
2023-04-11T05:33:14.604Z,5.10
2023-04-11T05:35:43.521Z,4.95
2023-04-11T05:38:11.074Z,4.72
2023-04-11T05:40:40.075Z,4.60
2023-04-11T05:43:08.417Z,4.38
2023-04-11T05:45:35.745Z,5.35
2023-04-11T05:48:07.953Z,4.47
2023-04-11T05:50:36.355Z,4.60
2023-04-11T05:53:03.877Z,4.18
2023-04-11T05:55:31.805Z,4.03
2023-04-11T05:57:58.967Z,5.05
2023-04-11T06:00:28.623Z,4.65
2023-04-11T06:02:56.033Z,4.97
2023-04-11T06:05:23.998Z,4.47
2023-04-11T06:07:51.902Z,5.28
2023-04-11T06:10:19.165Z,4.68
2023-04-11T06:12:46.335Z,3.95
2023-04-11T06:15:14.023Z,4.03
2023-04-11T06:17:41.312Z,3.90
2023-04-11T06:20:10.460Z,4.15
2023-04-11T06:22:40.428Z,4.20
2023-04-11T06:25:09.098Z,3.78
2023-04-11T06:27:36.717Z,3.83
2023-04-11T06:30:04.404Z,3.88
2023-04-11T06:32:31.670Z,3.83
2023-04-11T06:34:59.008Z,3.97
2023-04-11T06:37:26.247Z,3.03
2023-04-11T06:39:53.610Z,3.42
2023-04-11T06:42:20.975Z,3.22
2023-04-11T06:44:51.816Z,3.92
2023-04-11T06:47:19.216Z,3.65
2023-04-11T06:49:46.548Z,4.03
2023-04-11T06:52:13.880Z,3.05
2023-04-11T06:54:41.060Z,3.65
2023-04-11T06:57:10.302Z,3.95
2023-04-11T06:59:37.931Z,3.90
2023-04-11T07:02:05.406Z,3.78
2023-04-11T07:04:34.103Z,3.92
2023-04-11T07:07:01.503Z,5.22
2023-04-11T07:09:28.861Z,3.20
2023-04-11T07:11:56.696Z,4.65
2023-04-11T07:14:24.009Z,4.00
2023-04-11T07:16:51.415Z,3.40
2023-04-11T07:19:18.775Z,4.50
2023-04-11T07:21:46.030Z,3.90
2023-04-11T07:24:13.522Z,4.40
2023-04-11T07:26:42.305Z,4.97
2023-04-11T07:29:11.573Z,4.95
2023-04-11T07:31:40.952Z,4.07
2023-04-11T07:34:08.264Z,4.47
2023-04-11T07:36:35.780Z,5.03
2023-04-11T07:39:04.580Z,4.40
2023-04-11T07:41:31.727Z,4.45
2023-04-11T07:43:59.089Z,4.22
2023-04-11T07:46:26.325Z,4.72
2023-04-11T07:48:53.716Z,4.63
2023-04-11T07:51:21.046Z,3.90
2023-04-11T07:53:48.312Z,4.15
2023-04-11T07:56:15.940Z,4.57
2023-04-11T07:58:43.379Z,3.50
2023-04-11T08:01:25.745Z,4.20
2023-04-11T08:03:56.982Z,4.75
2023-04-11T08:06:24.766Z,4.50
2023-04-11T08:08:52.165Z,5.10
2023-04-11T08:11:19.484Z,4.30
2023-04-11T08:13:46.724Z,3.75
2023-04-11T08:16:16.117Z,4.20
2023-04-11T08:18:45.689Z,4.70
2023-04-11T08:21:13.142Z,3.77
2023-04-11T08:23:42.416Z,4.03
2023-04-11T08:26:12.033Z,3.85
2023-04-11T08:28:42.422Z,4.15
2023-04-11T08:31:13.169Z,4.35
2023-04-11T08:33:41.388Z,3.80
2023-04-11T08:36:10.547Z,4.00
2023-04-11T08:38:39.671Z,3.87
2023-04-11T08:41:07.651Z,3.92
2023-04-11T08:43:35.773Z,3.63
2023-04-11T08:46:04.280Z,3.92
2023-04-11T08:48:32.466Z,3.90
2023-04-11T08:50:59.953Z,3.53
2023-04-11T08:53:29.290Z,3.90
2023-04-11T08:55:56.614Z,4.07
2023-04-11T08:58:23.773Z,4.10
2023-04-11T09:00:51.083Z,3.45
2023-04-11T09:03:18.585Z,4.85
2023-04-11T09:05:47.073Z,3.80
2023-04-11T09:08:16.748Z,3.80
2023-04-11T09:10:46.173Z,3.85
2023-04-11T09:13:23.909Z,3.42
2023-04-11T09:16:12.976Z,4.22
2023-04-11T09:18:42.624Z,4.32
2023-04-11T09:21:15.254Z,3.63
2023-04-11T09:23:43.153Z,3.65
2023-04-11T09:26:12.781Z,4.18
2023-04-11T09:28:54.398Z,3.97
2023-04-11T09:31:38.258Z,3.88
2023-04-11T09:34:05.518Z,4.15
2023-04-11T09:36:32.711Z,4.40
2023-04-11T09:39:00.076Z,4.93
2023-04-11T09:41:38.644Z,4.90
2023-04-11T09:44:05.914Z,4.75
2023-04-11T09:46:33.187Z,5.75
2023-04-11T09:49:03.797Z,4.90
2023-04-11T09:51:35.900Z,5.03
2023-04-11T09:54:05.406Z,4.93
2023-04-11T09:56:36.580Z,5.70
2023-04-11T09:59:05.323Z,5.00
2023-04-11T10:01:33.365Z,5.45
2023-04-11T10:04:01.500Z,5.18
2023-04-11T10:07:10.663Z,5.30
2023-04-11T10:09:43.627Z,4.55
2023-04-11T10:12:11.171Z,4.88
2023-04-11T10:14:38.421Z,5.10
2023-04-11T10:17:23.474Z,3.60
2023-04-11T10:19:56.942Z,3.45
2023-04-11T10:22:46.497Z,3.45
2023-04-11T10:25:22.119Z,3.40
2023-04-11T10:28:01.392Z,3.55
2023-04-11T10:30:40.973Z,3.35
2023-04-11T10:33:20.792Z,3.07
2023-04-11T10:36:02.298Z,3.70
2023-04-11T10:38:41.996Z,3.65
2023-04-11T10:41:33.524Z,3.78
2023-04-11T10:44:24.895Z,3.88
2023-04-11T10:46:54.834Z,3.13
2023-04-11T10:49:40.506Z,4.10
2023-04-11T10:52:22.934Z,3.28
2023-04-11T10:54:52.769Z,3.10
2023-04-11T10:57:21.729Z,2.95
2023-04-11T10:59:51.641Z,3.25
2023-04-11T11:02:19.874Z,3.15
2023-04-11T11:04:48.890Z,3.47
2023-04-11T11:07:17.482Z,2.85
2023-04-11T11:09:51.410Z,3.45
2023-04-11T11:12:19.041Z,3.10
2023-04-11T11:14:47.288Z,2.80
2023-04-11T11:17:17.116Z,3.53
2023-04-11T11:19:48.204Z,3.22
2023-04-11T11:22:26.584Z,3.40
2023-04-11T11:24:53.878Z,3.33
2023-04-11T11:27:23.324Z,3.22
2023-04-11T11:29:51.651Z,3.67
2023-04-11T11:32:28.499Z,3.55
2023-04-11T11:34:57.713Z,3.13
2023-04-11T11:37:25.342Z,3.58
2023-04-11T11:39:53.173Z,3.75
2023-04-11T11:42:20.550Z,3.38
2023-04-11T11:44:47.808Z,3.65
2023-04-11T11:47:18.348Z,4.03
2023-04-11T11:49:54.417Z,4.40
2023-04-11T11:52:40.548Z,4.80
2023-04-11T11:55:29.935Z,6.20
2023-04-11T11:58:02.384Z,4.33
2023-04-11T12:00:34.903Z,3.92
2023-04-11T12:03:03.558Z,3.78
2023-04-11T12:05:35.097Z,4.22
2023-04-11T12:08:07.489Z,3.97
2023-04-11T12:10:45.541Z,3.60
2023-04-11T12:13:19.782Z,3.88
2023-04-11T12:15:54.323Z,3.83
2023-04-11T12:18:24.106Z,3.80
2023-04-11T12:20:52.374Z,4.83
2023-04-11T12:23:20.142Z,4.47
2023-04-11T12:25:47.633Z,4.70
2023-04-11T12:28:15.074Z,6.65
2023-04-11T12:30:42.281Z,4.38
2023-04-11T12:33:09.628Z,4.40
2023-04-11T12:35:37.029Z,4.30
2023-04-11T12:38:04.432Z,4.63
2023-04-11T12:40:31.961Z,5.00
2023-04-11T12:42:59.570Z,5.03
2023-04-11T12:45:27.289Z,4.20
2023-04-11T12:47:54.733Z,4.32
2023-04-11T12:50:23.693Z,4.10
2023-04-11T12:52:51.750Z,3.72
2023-04-11T12:55:19.151Z,4.35
2023-04-11T12:57:46.435Z,3.40
2023-04-11T13:00:14.892Z,4.22
2023-04-11T13:02:44.980Z,3.63
2023-04-11T13:05:15.562Z,3.92
2023-04-11T13:10:14.005Z,5.20
2023-04-11T13:12:44.689Z,4.82
2023-04-11T13:15:15.359Z,5.45
2023-04-11T13:17:43.388Z,5.55
2023-04-11T13:20:11.664Z,7.57
2023-04-11T13:22:42.977Z,6.22
2023-04-11T13:25:12.431Z,6.45
2023-04-11T13:27:41.086Z,7.57
2023-04-11T13:30:10.655Z,5.90
2023-04-11T13:32:38.131Z,6.13
2023-04-11T13:35:06.262Z,5.40
2023-04-11T13:37:33.496Z,6.18
2023-04-11T13:40:01.046Z,5.35
2023-04-11T13:42:28.413Z,6.45
2023-04-11T13:44:55.643Z,6.75
2023-04-11T13:47:23.024Z,7.07
2023-04-11T13:49:50.311Z,7.07
2023-04-11T13:52:17.568Z,6.63
2023-04-11T13:54:44.726Z,5.25
2023-04-11T13:57:11.968Z,4.80
2023-04-11T13:59:39.181Z,4.03
2023-04-11T14:02:07.200Z,4.40
2023-04-11T14:04:34.559Z,4.80
2023-04-11T14:07:01.901Z,3.90
2023-04-11T14:09:29.281Z,5.00
2023-04-11T14:11:57.002Z,4.72
2023-04-11T14:14:24.343Z,4.97
2023-04-11T14:16:51.803Z,5.15
2023-04-11T14:19:19.164Z,5.07
2023-04-11T14:21:46.624Z,6.00
2023-04-11T14:24:13.942Z,6.25
2023-04-11T14:26:41.407Z,6.70
2023-04-11T14:29:08.732Z,6.22
2023-04-11T14:31:36.547Z,6.57
2023-04-11T14:34:03.962Z,7.03
2023-04-11T14:36:32.083Z,6.95
2023-04-11T14:38:59.534Z,6.65
2023-04-11T14:41:26.792Z,7.82
2023-04-11T14:43:54.129Z,7.32
2023-04-11T14:46:21.554Z,7.43
2023-04-11T14:48:48.939Z,7.40
2023-04-11T14:51:16.229Z,6.95
2023-04-11T14:53:43.413Z,6.53
2023-04-11T14:56:10.688Z,9.18
2023-04-11T14:58:37.899Z,9.13
2023-04-11T15:01:05.386Z,8.40
2023-04-11T15:03:33.073Z,10.73
2023-04-11T15:06:00.531Z,10.90
2023-04-11T15:08:27.767Z,10.52
2023-04-11T15:10:55.101Z,9.75
2023-04-11T15:13:23.082Z,9.90
2023-04-11T15:15:51.448Z,9.10
2023-04-11T15:18:22.137Z,8.93
2023-04-11T15:23:19.048Z,9.48
2023-04-11T15:26:03.488Z,9.23
2023-04-11T15:28:39.308Z,7.93
2023-04-11T15:31:13.042Z,9.00
2023-04-11T15:33:40.901Z,10.15
2023-04-11T15:36:08.816Z,10.75
2023-04-11T15:38:36.987Z,10.68
2023-04-11T15:41:04.548Z,7.60
2023-04-11T15:43:32.493Z,8.88
2023-04-11T15:46:03.453Z,6.18
2023-04-11T15:48:31.131Z,10.73
2023-04-11T15:50:58.665Z,4.90
2023-04-11T15:53:26.602Z,6.18
2023-04-11T15:55:54.244Z,5.45
2023-04-11T15:58:21.648Z,5.53
2023-04-11T16:00:48.941Z,3.78
2023-04-11T16:03:16.776Z,3.03
2023-04-11T16:05:45.091Z,2.60
2023-04-11T16:08:12.343Z,6.28
2023-04-11T16:10:39.636Z,4.38
2023-04-11T16:13:07.078Z,3.85
2023-04-11T16:15:34.347Z,3.85
2023-04-11T16:18:01.735Z,4.30
2023-04-11T16:20:28.997Z,4.82
2023-04-11T16:22:56.421Z,3.53
2023-04-11T16:25:23.904Z,5.00
2023-04-11T16:27:51.594Z,4.70
2023-04-11T16:30:19.317Z,4.20
2023-04-11T16:32:46.896Z,3.97
2023-04-11T16:35:14.130Z,4.10
2023-04-11T16:37:41.725Z,3.65
2023-04-11T16:40:11.728Z,2.80
2023-04-11T16:42:40.499Z,3.13
2023-04-11T16:45:09.858Z,2.63
2023-04-11T16:47:37.378Z,3.72
2023-04-11T16:50:05.924Z,3.42
2023-04-11T16:52:33.890Z,3.53
2023-04-11T16:55:01.783Z,3.78
2023-04-11T16:57:29.147Z,3.40
2023-04-11T16:59:56.370Z,3.65
2023-04-11T17:02:24.158Z,3.88
2023-04-11T17:04:51.645Z,4.25
2023-04-11T17:07:18.991Z,4.05
2023-04-11T17:09:50.014Z,7.65
2023-04-11T17:12:17.635Z,6.50
2023-04-11T17:14:45.879Z,4.63
2023-04-11T17:17:13.287Z,4.43
2023-04-11T17:19:40.762Z,4.55
2023-04-11T17:22:08.223Z,4.80
2023-04-11T17:24:36.262Z,5.60
2023-04-11T17:27:04.073Z,5.13
2023-04-11T17:29:31.278Z,6.28
2023-04-11T17:31:58.927Z,5.82
2023-04-11T17:34:26.618Z,6.70
2023-04-11T17:36:56.888Z,6.22
2023-04-11T17:39:24.367Z,6.53
2023-04-11T17:41:51.695Z,6.43
2023-04-11T17:44:19.324Z,6.72
2023-04-11T17:46:46.824Z,7.80
2023-04-11T17:49:14.970Z,7.88
2023-04-11T17:51:48.885Z,6.90
2023-04-11T17:54:20.014Z,8.63
2023-04-11T17:56:47.426Z,8.88
2023-04-11T17:59:17.202Z,8.95
2023-04-11T18:01:46.619Z,7.90
2023-04-11T18:04:14.917Z,8.60
2023-04-11T18:06:46.229Z,8.02
2023-04-11T18:09:15.948Z,6.85
2023-04-11T18:11:44.188Z,6.15
2023-04-11T18:14:11.577Z,6.45
2023-04-11T18:16:40.105Z,5.00
2023-04-11T18:19:07.427Z,5.15
2023-04-11T18:21:35.037Z,4.70
2023-04-11T18:24:02.503Z,4.82
2023-04-11T18:26:31.462Z,5.05
2023-04-11T18:29:00.431Z,5.20
2023-04-11T18:31:28.261Z,4.05
2023-04-11T18:33:55.760Z,4.40
2023-04-11T18:38:52.255Z,4.82
2023-04-11T18:41:20.287Z,5.18
2023-04-11T18:43:47.821Z,5.38
2023-04-11T18:46:15.164Z,5.40
2023-04-11T18:48:42.575Z,4.65
2023-04-11T18:51:09.926Z,3.97
2023-04-11T18:53:37.385Z,4.90
2023-04-11T18:56:05.038Z,4.75
2023-04-11T18:58:34.228Z,5.20
2023-04-11T19:01:14.610Z,5.20
2023-04-11T19:03:44.601Z,5.45
2023-04-11T19:06:13.010Z,5.97
2023-04-11T19:08:40.906Z,6.35
2023-04-11T19:11:08.213Z,6.38
2023-04-11T19:13:35.833Z,5.90
2023-04-11T19:16:03.396Z,6.63
2023-04-11T19:18:32.061Z,7.38
2023-04-11T19:21:01.088Z,8.68
2023-04-11T19:23:29.513Z,7.40
2023-04-11T19:26:01.166Z,7.68
2023-04-11T19:28:30.284Z,8.20
2023-04-11T19:30:58.231Z,8.75
2023-04-11T19:33:26.306Z,9.73
2023-04-11T19:35:54.369Z,10.68
2023-04-11T19:38:21.884Z,11.38
2023-04-11T19:40:49.286Z,9.73
2023-04-11T19:43:16.679Z,9.30
2023-04-11T19:45:44.255Z,6.68
2023-04-11T19:48:12.278Z,7.65
2023-04-11T19:50:39.756Z,6.57
2023-04-11T19:53:07.262Z,7.30
2023-04-11T19:55:34.920Z,6.63
2023-04-11T19:58:02.905Z,5.50
2023-04-11T20:00:34.731Z,5.57
2023-04-11T20:03:02.780Z,5.40
2023-04-11T20:05:32.154Z,4.35
2023-04-11T20:07:59.590Z,4.95
2023-04-11T20:10:28.604Z,3.70
2023-04-11T20:12:56.155Z,3.40
2023-04-11T20:15:23.757Z,3.78
2023-04-11T20:17:51.234Z,3.47
2023-04-11T20:20:20.384Z,3.22
2023-04-11T20:22:48.519Z,3.28
2023-04-11T20:25:15.915Z,2.72
2023-04-11T20:27:43.936Z,2.80
2023-04-11T20:30:12.375Z,3.22
2023-04-11T20:32:41.395Z,2.50
2023-04-11T20:35:09.987Z,2.60
2023-04-11T20:37:39.996Z,2.97
2023-04-11T20:40:10.129Z,3.10
2023-04-11T20:42:42.564Z,2.92
2023-04-11T20:45:13.626Z,3.33
2023-04-11T20:47:44.989Z,3.03
2023-04-11T20:50:14.653Z,2.80
2023-04-11T20:52:47.502Z,2.60
2023-04-11T20:55:15.772Z,3.45
2023-04-11T20:57:45.069Z,2.88
2023-04-11T21:00:16.611Z,2.90
2023-04-11T21:02:47.410Z,2.97
2023-04-11T21:05:20.104Z,2.63
2023-04-11T21:07:47.557Z,2.40
2023-04-11T21:10:15.756Z,2.13
2023-04-11T21:12:43.327Z,1.90
2023-04-11T21:15:11.907Z,2.20
2023-04-11T21:17:39.706Z,2.67
2023-04-11T21:20:10.458Z,2.08
2023-04-11T21:22:37.796Z,2.40
2023-04-11T21:25:05.802Z,2.33
2023-04-11T21:27:33.086Z,2.25
2023-04-11T21:30:00.407Z,1.85
2023-04-11T21:32:28.201Z,1.60
2023-04-11T21:34:55.523Z,1.77
2023-04-11T21:37:22.970Z,2.08
2023-04-11T21:39:50.402Z,2.22
2023-04-11T21:42:17.551Z,2.03
2023-04-11T21:44:45.085Z,2.03
2023-04-11T21:47:12.645Z,2.47
2023-04-11T21:49:39.896Z,2.67
2023-04-11T21:52:07.562Z,1.80
2023-04-11T21:54:34.935Z,2.25
2023-04-11T21:57:02.180Z,2.22
2023-04-11T21:59:29.794Z,2.67
2023-04-11T22:01:57.528Z,1.92
2023-04-11T22:04:25.187Z,2.72
2023-04-11T22:06:54.264Z,2.75
2023-04-11T22:09:23.216Z,1.88
2023-04-11T22:11:51.344Z,2.40
2023-04-11T22:14:18.785Z,2.92
2023-04-11T22:16:49.342Z,1.70
2023-04-11T22:19:18.452Z,1.70
2023-04-11T22:21:50.682Z,1.88
2023-04-11T22:24:17.920Z,1.90
2023-04-11T22:26:46.588Z,2.40
2023-04-11T22:29:16.007Z,2.03
2023-04-11T22:31:43.293Z,2.45
2023-04-11T22:34:10.566Z,2.55
2023-04-11T22:36:37.919Z,1.75
2023-04-11T22:39:09.507Z,2.40
2023-04-11T22:41:38.684Z,2.35
2023-04-11T22:44:07.032Z,2.38
2023-04-11T22:46:39.351Z,2.10
2023-04-11T22:49:09.848Z,1.92
2023-04-11T22:51:38.158Z,2.33
2023-04-11T22:54:05.894Z,2.25
2023-04-11T22:56:33.110Z,2.35
2023-04-11T22:59:00.338Z,1.98
2023-04-11T23:01:28.286Z,1.92
2023-04-11T23:03:55.987Z,1.83
2023-04-11T23:06:23.581Z,2.20
2023-04-11T23:08:54.002Z,1.65
2023-04-11T23:11:21.693Z,2.03
2023-04-11T23:13:48.876Z,1.90
2023-04-11T23:16:16.148Z,2.35
2023-04-11T23:18:43.357Z,2.05
2023-04-11T23:21:14.448Z,2.38
2023-04-11T23:23:41.856Z,2.05
2023-04-11T23:26:09.318Z,1.90
2023-04-11T23:28:36.537Z,2.17
2023-04-11T23:31:04.111Z,1.63
2023-04-11T23:33:31.479Z,1.63
2023-04-11T23:35:58.713Z,2.40
2023-04-11T23:38:26.274Z,1.90
2023-04-11T23:40:53.619Z,2.17
2023-04-11T23:43:21.117Z,2.97
2023-04-11T23:45:48.462Z,3.05
2023-04-11T23:48:15.716Z,3.17
2023-04-11T23:50:43.020Z,3.97
2023-04-11T23:53:10.386Z,3.65
2023-04-11T23:55:38.279Z,3.80
2023-04-11T23:58:05.515Z,4.35
